sensor_id;sensor_type;location;lat;lon;timestamp;P1;durP1;ratioP1;P2;durP2;ratioP2
64667;SDS011;51077;42.716;23.344;2023-08-12T00:01:05;3.10;;;1.90;;
64667;SDS011;51077;42.716;23.344;2023-08-12T00:03:30;4.30;;;2.17;;
64667;SDS011;51077;42.716;23.344;2023-08-12T00:05:56;3.90;;;2.13;;
64667;SDS011;51077;42.716;23.344;2023-08-12T00:08:25;3.28;;;2.10;;
64667;SDS011;51077;42.716;23.344;2023-08-12T00:10:51;3.60;;;2.40;;
64667;SDS011;51077;42.716;23.344;2023-08-12T00:13:16;4.70;;;1.70;;
64667;SDS011;51077;42.716;23.344;2023-08-12T00:15:42;3.78;;;2.10;;
64667;SDS011;51077;42.716;23.344;2023-08-12T00:18:08;3.65;;;2.00;;
64667;SDS011;51077;42.716;23.344;2023-08-12T00:20:34;6.27;;;1.90;;
64667;SDS011;51077;42.716;23.344;2023-08-12T00:22:59;3.37;;;1.97;;
64667;SDS011;51077;42.716;23.344;2023-08-12T00:25:25;4.80;;;2.33;;
64667;SDS011;51077;42.716;23.344;2023-08-12T00:27:50;4.23;;;2.33;;
64667;SDS011;51077;42.716;23.344;2023-08-12T00:30:15;3.50;;;1.77;;
64667;SDS011;51077;42.716;23.344;2023-08-12T00:32:41;6.00;;;2.10;;
64667;SDS011;51077;42.716;23.344;2023-08-12T00:35:06;3.47;;;2.13;;
64667;SDS011;51077;42.716;23.344;2023-08-12T00:37:32;3.43;;;2.00;;
64667;SDS011;51077;42.716;23.344;2023-08-12T00:39:57;4.17;;;1.80;;
64667;SDS011;51077;42.716;23.344;2023-08-12T00:42:23;3.33;;;1.93;;
64667;SDS011;51077;42.716;23.344;2023-08-12T00:44:49;3.53;;;1.88;;
64667;SDS011;51077;42.716;23.344;2023-08-12T00:47:15;2.53;;;1.90;;
64667;SDS011;51077;42.716;23.344;2023-08-12T00:49:41;2.85;;;1.75;;
64667;SDS011;51077;42.716;23.344;2023-08-12T00:52:10;4.63;;;1.92;;
64667;SDS011;51077;42.716;23.344;2023-08-12T00:54:37;3.78;;;2.30;;
64667;SDS011;51077;42.716;23.344;2023-08-12T00:57:03;3.33;;;1.87;;
64667;SDS011;51077;42.716;23.344;2023-08-12T00:59:28;3.30;;;1.87;;
64667;SDS011;51077;42.716;23.344;2023-08-12T01:01:54;3.33;;;2.07;;
64667;SDS011;51077;42.716;23.344;2023-08-12T01:04:19;4.20;;;2.03;;
64667;SDS011;51077;42.716;23.344;2023-08-12T01:06:45;3.30;;;2.10;;
64667;SDS011;51077;42.716;23.344;2023-08-12T01:09:10;6.73;;;2.40;;
64667;SDS011;51077;42.716;23.344;2023-08-12T01:12:11;3.73;;;2.37;;
64667;SDS011;51077;42.716;23.344;2023-08-12T01:17:09;4.82;;;2.60;;
64667;SDS011;51077;42.716;23.344;2023-08-12T01:19:38;3.60;;;2.13;;
64667;SDS011;51077;42.716;23.344;2023-08-12T01:22:06;3.20;;;2.10;;
64667;SDS011;51077;42.716;23.344;2023-08-12T01:24:37;3.33;;;2.10;;
64667;SDS011;51077;42.716;23.344;2023-08-12T01:27:03;4.22;;;2.35;;
64667;SDS011;51077;42.716;23.344;2023-08-12T01:29:30;3.63;;;2.15;;
64667;SDS011;51077;42.716;23.344;2023-08-12T01:34:45;4.80;;;2.05;;
64667;SDS011;51077;42.716;23.344;2023-08-12T01:37:17;4.47;;;2.38;;
64667;SDS011;51077;42.716;23.344;2023-08-12T01:39:48;4.65;;;2.25;;
64667;SDS011;51077;42.716;23.344;2023-08-12T01:42:15;4.95;;;2.65;;
64667;SDS011;51077;42.716;23.344;2023-08-12T01:44:44;3.45;;;2.10;;
64667;SDS011;51077;42.716;23.344;2023-08-12T01:47:09;3.10;;;2.13;;
64667;SDS011;51077;42.716;23.344;2023-08-12T01:49:35;4.80;;;2.40;;
64667;SDS011;51077;42.716;23.344;2023-08-12T01:52:00;3.77;;;2.30;;
64667;SDS011;51077;42.716;23.344;2023-08-12T01:54:26;4.27;;;2.40;;
64667;SDS011;51077;42.716;23.344;2023-08-12T01:56:51;3.03;;;2.10;;
64667;SDS011;51077;42.716;23.344;2023-08-12T01:59:16;3.03;;;1.80;;
64667;SDS011;51077;42.716;23.344;2023-08-12T02:01:42;3.87;;;2.03;;
64667;SDS011;51077;42.716;23.344;2023-08-12T02:04:07;3.10;;;2.07;;
64667;SDS011;51077;42.716;23.344;2023-08-12T02:06:32;4.70;;;1.90;;
64667;SDS011;51077;42.716;23.344;2023-08-12T02:08:58;3.40;;;2.17;;
64667;SDS011;51077;42.716;23.344;2023-08-12T02:11:23;2.90;;;2.00;;
64667;SDS011;51077;42.716;23.344;2023-08-12T02:13:49;4.43;;;2.10;;
64667;SDS011;51077;42.716;23.344;2023-08-12T02:16:14;6.70;;;2.17;;
64667;SDS011;51077;42.716;23.344;2023-08-12T02:18:39;3.50;;;1.80;;
64667;SDS011;51077;42.716;23.344;2023-08-12T02:21:05;4.87;;;2.17;;
64667;SDS011;51077;42.716;23.344;2023-08-12T02:23:30;5.37;;;2.20;;
64667;SDS011;51077;42.716;23.344;2023-08-12T02:25:55;4.20;;;2.10;;
64667;SDS011;51077;42.716;23.344;2023-08-12T02:28:21;3.53;;;1.90;;
64667;SDS011;51077;42.716;23.344;2023-08-12T02:30:46;3.90;;;2.10;;
64667;SDS011;51077;42.716;23.344;2023-08-12T02:33:11;4.00;;;2.27;;
64667;SDS011;51077;42.716;23.344;2023-08-12T02:35:39;3.97;;;2.30;;
64667;SDS011;51077;42.716;23.344;2023-08-12T02:38:05;4.45;;;2.00;;
64667;SDS011;51077;42.716;23.344;2023-08-12T02:40:30;4.67;;;2.00;;
64667;SDS011;51077;42.716;23.344;2023-08-12T02:42:55;2.80;;;1.77;;
64667;SDS011;51077;42.716;23.344;2023-08-12T02:45:21;3.40;;;2.20;;
64667;SDS011;51077;42.716;23.344;2023-08-12T02:47:46;3.37;;;1.80;;
64667;SDS011;51077;42.716;23.344;2023-08-12T02:50:12;5.63;;;2.13;;
64667;SDS011;51077;42.716;23.344;2023-08-12T02:52:37;3.63;;;1.90;;
64667;SDS011;51077;42.716;23.344;2023-08-12T02:55:02;4.03;;;2.20;;
64667;SDS011;51077;42.716;23.344;2023-08-12T02:57:28;4.20;;;2.00;;
64667;SDS011;51077;42.716;23.344;2023-08-12T02:59:53;3.67;;;2.43;;
64667;SDS011;51077;42.716;23.344;2023-08-12T03:02:19;3.17;;;2.00;;
64667;SDS011;51077;42.716;23.344;2023-08-12T03:04:44;3.90;;;1.87;;
64667;SDS011;51077;42.716;23.344;2023-08-12T03:07:09;3.00;;;2.00;;
64667;SDS011;51077;42.716;23.344;2023-08-12T03:09:35;4.50;;;2.00;;
64667;SDS011;51077;42.716;23.344;2023-08-12T03:12:00;3.13;;;2.10;;
64667;SDS011;51077;42.716;23.344;2023-08-12T03:14:28;3.25;;;2.20;;
64667;SDS011;51077;42.716;23.344;2023-08-12T03:16:54;4.28;;;2.13;;
64667;SDS011;51077;42.716;23.344;2023-08-12T03:19:20;3.37;;;1.90;;
64667;SDS011;51077;42.716;23.344;2023-08-12T03:21:45;4.47;;;1.97;;
64667;SDS011;51077;42.716;23.344;2023-08-12T03:24:10;3.13;;;2.00;;
64667;SDS011;51077;42.716;23.344;2023-08-12T03:26:36;4.87;;;1.97;;
64667;SDS011;51077;42.716;23.344;2023-08-12T03:29:01;3.60;;;2.20;;
64667;SDS011;51077;42.716;23.344;2023-08-12T03:31:27;3.93;;;2.13;;
64667;SDS011;51077;42.716;23.344;2023-08-12T03:33:52;4.90;;;1.87;;
64667;SDS011;51077;42.716;23.344;2023-08-12T03:36:17;4.43;;;2.27;;
64667;SDS011;51077;42.716;23.344;2023-08-12T03:38:43;5.37;;;2.87;;
64667;SDS011;51077;42.716;23.344;2023-08-12T03:41:08;4.70;;;2.50;;
64667;SDS011;51077;42.716;23.344;2023-08-12T03:43:33;5.10;;;2.90;;
64667;SDS011;51077;42.716;23.344;2023-08-12T03:45:59;4.07;;;2.27;;
64667;SDS011;51077;42.716;23.344;2023-08-12T03:48:24;6.03;;;2.50;;
64667;SDS011;51077;42.716;23.344;2023-08-12T03:50:50;5.17;;;1.93;;
64667;SDS011;51077;42.716;23.344;2023-08-12T03:53:15;5.57;;;2.33;;
64667;SDS011;51077;42.716;23.344;2023-08-12T03:55:42;3.15;;;2.03;;
64667;SDS011;51077;42.716;23.344;2023-08-12T03:58:07;5.60;;;2.50;;
64667;SDS011;51077;42.716;23.344;2023-08-12T04:00:33;4.30;;;2.70;;
64667;SDS011;51077;42.716;23.344;2023-08-12T04:02:58;12.27;;;2.43;;
64667;SDS011;51077;42.716;23.344;2023-08-12T04:05:25;5.00;;;2.20;;
64667;SDS011;51077;42.716;23.344;2023-08-12T04:07:50;3.70;;;2.27;;
64667;SDS011;51077;42.716;23.344;2023-08-12T04:10:16;6.77;;;2.40;;
64667;SDS011;51077;42.716;23.344;2023-08-12T04:12:41;3.87;;;2.13;;
64667;SDS011;51077;42.716;23.344;2023-08-12T04:15:08;4.05;;;2.35;;
64667;SDS011;51077;42.716;23.344;2023-08-12T04:17:33;5.38;;;2.30;;
64667;SDS011;51077;42.716;23.344;2023-08-12T04:19:59;7.13;;;2.50;;
64667;SDS011;51077;42.716;23.344;2023-08-12T04:22:24;3.63;;;2.37;;
64667;SDS011;51077;42.716;23.344;2023-08-12T04:24:50;4.20;;;2.43;;
64667;SDS011;51077;42.716;23.344;2023-08-12T04:27:15;4.40;;;2.10;;
64667;SDS011;51077;42.716;23.344;2023-08-12T04:29:45;5.22;;;2.75;;
64667;SDS011;51077;42.716;23.344;2023-08-12T04:32:10;6.05;;;2.63;;
64667;SDS011;51077;42.716;23.344;2023-08-12T04:34:36;4.70;;;2.43;;
64667;SDS011;51077;42.716;23.344;2023-08-12T04:37:01;6.63;;;2.80;;
64667;SDS011;51077;42.716;23.344;2023-08-12T04:39:27;6.20;;;2.35;;
64667;SDS011;51077;42.716;23.344;2023-08-12T04:41:52;6.50;;;3.00;;
64667;SDS011;51077;42.716;23.344;2023-08-12T04:44:18;4.93;;;2.60;;
64667;SDS011;51077;42.716;23.344;2023-08-12T04:46:43;7.53;;;2.20;;
64667;SDS011;51077;42.716;23.344;2023-08-12T04:49:09;4.60;;;2.70;;
64667;SDS011;51077;42.716;23.344;2023-08-12T04:51:34;4.90;;;2.40;;
64667;SDS011;51077;42.716;23.344;2023-08-12T04:53:59;4.10;;;2.43;;
64667;SDS011;51077;42.716;23.344;2023-08-12T04:56:26;4.70;;;2.53;;
64667;SDS011;51077;42.716;23.344;2023-08-12T04:58:54;5.35;;;2.28;;
64667;SDS011;51077;42.716;23.344;2023-08-12T05:01:19;4.57;;;2.53;;
64667;SDS011;51077;42.716;23.344;2023-08-12T05:03:45;3.90;;;2.40;;
64667;SDS011;51077;42.716;23.344;2023-08-12T05:06:10;4.10;;;2.40;;
64667;SDS011;51077;42.716;23.344;2023-08-12T05:08:36;4.77;;;2.60;;
64667;SDS011;51077;42.716;23.344;2023-08-12T05:11:01;5.13;;;2.60;;
64667;SDS011;51077;42.716;23.344;2023-08-12T05:13:26;3.83;;;2.60;;
64667;SDS011;51077;42.716;23.344;2023-08-12T05:15:53;4.63;;;3.10;;
64667;SDS011;51077;42.716;23.344;2023-08-12T05:18:20;3.92;;;2.50;;
64667;SDS011;51077;42.716;23.344;2023-08-12T05:20:48;5.32;;;2.72;;
64667;SDS011;51077;42.716;23.344;2023-08-12T05:23:15;5.00;;;2.60;;
64667;SDS011;51077;42.716;23.344;2023-08-12T05:25:41;6.47;;;3.00;;
64667;SDS011;51077;42.716;23.344;2023-08-12T05:28:06;4.37;;;2.67;;
64667;SDS011;51077;42.716;23.344;2023-08-12T05:30:32;4.78;;;2.72;;
64667;SDS011;51077;42.716;23.344;2023-08-12T05:32:58;3.60;;;2.53;;
64667;SDS011;51077;42.716;23.344;2023-08-12T05:35:24;6.20;;;3.00;;
64667;SDS011;51077;42.716;23.344;2023-08-12T05:37:49;4.32;;;2.67;;
64667;SDS011;51077;42.716;23.344;2023-08-12T05:40:15;4.87;;;3.20;;
64667;SDS011;51077;42.716;23.344;2023-08-12T05:42:40;8.23;;;2.33;;
64667;SDS011;51077;42.716;23.344;2023-08-12T05:45:06;7.23;;;3.00;;
64667;SDS011;51077;42.716;23.344;2023-08-12T05:47:32;5.03;;;2.40;;
64667;SDS011;51077;42.716;23.344;2023-08-12T05:49:57;6.50;;;2.70;;
64667;SDS011;51077;42.716;23.344;2023-08-12T05:52:23;6.43;;;3.10;;
64667;SDS011;51077;42.716;23.344;2023-08-12T05:54:48;8.23;;;2.67;;
64667;SDS011;51077;42.716;23.344;2023-08-12T05:57:13;5.10;;;2.80;;
64667;SDS011;51077;42.716;23.344;2023-08-12T05:59:39;7.93;;;2.80;;
64667;SDS011;51077;42.716;23.344;2023-08-12T06:02:04;5.53;;;2.80;;
64667;SDS011;51077;42.716;23.344;2023-08-12T06:04:30;4.57;;;2.40;;
64667;SDS011;51077;42.716;23.344;2023-08-12T06:06:55;6.57;;;2.60;;
64667;SDS011;51077;42.716;23.344;2023-08-12T06:09:21;4.27;;;2.63;;
64667;SDS011;51077;42.716;23.344;2023-08-12T06:11:47;3.97;;;2.10;;
64667;SDS011;51077;42.716;23.344;2023-08-12T06:14:12;9.60;;;2.53;;
64667;SDS011;51077;42.716;23.344;2023-08-12T06:16:38;4.07;;;2.23;;
64667;SDS011;51077;42.716;23.344;2023-08-12T06:19:03;5.27;;;2.53;;
64667;SDS011;51077;42.716;23.344;2023-08-12T06:21:29;7.90;;;3.10;;
64667;SDS011;51077;42.716;23.344;2023-08-12T06:23:55;4.00;;;2.17;;
64667;SDS011;51077;42.716;23.344;2023-08-12T06:26:20;4.40;;;2.33;;
64667;SDS011;51077;42.716;23.344;2023-08-12T06:28:46;6.63;;;2.60;;
64667;SDS011;51077;42.716;23.344;2023-08-12T06:31:11;5.47;;;2.47;;
64667;SDS011;51077;42.716;23.344;2023-08-12T06:33:37;6.03;;;2.60;;
64667;SDS011;51077;42.716;23.344;2023-08-12T06:36:02;6.63;;;2.20;;
64667;SDS011;51077;42.716;23.344;2023-08-12T06:38:27;4.63;;;2.53;;
64667;SDS011;51077;42.716;23.344;2023-08-12T06:40:54;6.60;;;2.13;;
64667;SDS011;51077;42.716;23.344;2023-08-12T06:43:19;5.00;;;2.38;;
64667;SDS011;51077;42.716;23.344;2023-08-12T06:45:45;5.40;;;2.00;;
64667;SDS011;51077;42.716;23.344;2023-08-12T06:48:11;10.27;;;2.33;;
64667;SDS011;51077;42.716;23.344;2023-08-12T06:50:37;4.87;;;2.63;;
64667;SDS011;51077;42.716;23.344;2023-08-12T06:53:02;5.20;;;2.10;;
64667;SDS011;51077;42.716;23.344;2023-08-12T06:55:28;6.33;;;2.40;;
64667;SDS011;51077;42.716;23.344;2023-08-12T06:57:53;4.57;;;2.37;;
64667;SDS011;51077;42.716;23.344;2023-08-12T07:00:18;6.43;;;2.33;;
64667;SDS011;51077;42.716;23.344;2023-08-12T07:02:44;5.77;;;2.10;;
64667;SDS011;51077;42.716;23.344;2023-08-12T07:05:09;3.53;;;2.10;;
64667;SDS011;51077;42.716;23.344;2023-08-12T07:07:35;5.40;;;2.20;;
64667;SDS011;51077;42.716;23.344;2023-08-12T07:10:00;4.77;;;2.27;;
64667;SDS011;51077;42.716;23.344;2023-08-12T07:12:26;3.73;;;2.27;;
64667;SDS011;51077;42.716;23.344;2023-08-12T07:14:52;7.17;;;2.30;;
64667;SDS011;51077;42.716;23.344;2023-08-12T07:17:17;5.43;;;2.50;;
64667;SDS011;51077;42.716;23.344;2023-08-12T07:19:42;5.00;;;2.43;;
64667;SDS011;51077;42.716;23.344;2023-08-12T07:22:08;5.47;;;2.13;;
64667;SDS011;51077;42.716;23.344;2023-08-12T07:24:33;4.10;;;2.40;;
64667;SDS011;51077;42.716;23.344;2023-08-12T07:26:59;6.47;;;2.93;;
64667;SDS011;51077;42.716;23.344;2023-08-12T07:29:24;5.70;;;2.50;;
64667;SDS011;51077;42.716;23.344;2023-08-12T07:31:49;4.50;;;2.20;;
64667;SDS011;51077;42.716;23.344;2023-08-12T07:34:17;4.32;;;2.20;;
64667;SDS011;51077;42.716;23.344;2023-08-12T07:36:42;6.20;;;2.20;;
64667;SDS011;51077;42.716;23.344;2023-08-12T07:39:07;4.77;;;2.63;;
64667;SDS011;51077;42.716;23.344;2023-08-12T07:41:33;3.17;;;1.80;;
64667;SDS011;51077;42.716;23.344;2023-08-12T07:43:58;5.17;;;2.57;;
64667;SDS011;51077;42.716;23.344;2023-08-12T07:46:23;4.53;;;1.77;;
64667;SDS011;51077;42.716;23.344;2023-08-12T07:48:49;4.50;;;2.23;;
64667;SDS011;51077;42.716;23.344;2023-08-12T07:51:14;5.43;;;2.10;;
64667;SDS011;51077;42.716;23.344;2023-08-12T07:53:40;3.77;;;1.80;;
64667;SDS011;51077;42.716;23.344;2023-08-12T07:56:05;4.47;;;2.30;;
64667;SDS011;51077;42.716;23.344;2023-08-12T07:58:31;5.27;;;2.97;;
64667;SDS011;51077;42.716;23.344;2023-08-12T08:00:56;4.57;;;1.87;;
64667;SDS011;51077;42.716;23.344;2023-08-12T08:03:21;4.70;;;2.73;;
64667;SDS011;51077;42.716;23.344;2023-08-12T08:05:47;5.03;;;2.13;;
64667;SDS011;51077;42.716;23.344;2023-08-12T08:08:13;3.67;;;1.83;;
64667;SDS011;51077;42.716;23.344;2023-08-12T08:10:39;5.35;;;2.00;;
64667;SDS011;51077;42.716;23.344;2023-08-12T08:13:04;2.97;;;1.73;;
64667;SDS011;51077;42.716;23.344;2023-08-12T08:15:30;3.83;;;2.10;;
64667;SDS011;51077;42.716;23.344;2023-08-12T08:17:55;3.10;;;1.87;;
64667;SDS011;51077;42.716;23.344;2023-08-12T08:20:21;4.23;;;1.80;;
64667;SDS011;51077;42.716;23.344;2023-08-12T08:22:46;4.50;;;2.10;;
64667;SDS011;51077;42.716;23.344;2023-08-12T08:25:12;6.60;;;1.87;;
64667;SDS011;51077;42.716;23.344;2023-08-12T08:27:37;3.50;;;1.70;;
64667;SDS011;51077;42.716;23.344;2023-08-12T08:30:03;3.10;;;1.80;;
64667;SDS011;51077;42.716;23.344;2023-08-12T08:32:31;3.70;;;1.60;;
64667;SDS011;51077;42.716;23.344;2023-08-12T08:34:56;2.80;;;1.50;;
64667;SDS011;51077;42.716;23.344;2023-08-12T08:37:22;4.50;;;1.70;;
64667;SDS011;51077;42.716;23.344;2023-08-12T08:39:47;5.37;;;1.50;;
64667;SDS011;51077;42.716;23.344;2023-08-12T08:42:13;4.10;;;1.80;;
64667;SDS011;51077;42.716;23.344;2023-08-12T08:44:41;2.30;;;1.50;;
64667;SDS011;51077;42.716;23.344;2023-08-12T08:47:08;2.57;;;1.67;;
64667;SDS011;51077;42.716;23.344;2023-08-12T08:49:33;6.43;;;1.70;;
64667;SDS011;51077;42.716;23.344;2023-08-12T08:52:00;3.50;;;1.80;;
64667;SDS011;51077;42.716;23.344;2023-08-12T08:54:27;2.60;;;1.23;;
64667;SDS011;51077;42.716;23.344;2023-08-12T08:56:52;3.73;;;1.90;;
64667;SDS011;51077;42.716;23.344;2023-08-12T08:59:18;4.70;;;1.60;;
64667;SDS011;51077;42.716;23.344;2023-08-12T09:01:46;3.70;;;1.93;;
64667;SDS011;51077;42.716;23.344;2023-08-12T09:04:12;2.93;;;1.50;;
64667;SDS011;51077;42.716;23.344;2023-08-12T09:06:39;2.77;;;1.77;;
64667;SDS011;51077;42.716;23.344;2023-08-12T09:09:11;3.97;;;1.60;;
64667;SDS011;51077;42.716;23.344;2023-08-12T09:11:39;3.50;;;1.57;;
64667;SDS011;51077;42.716;23.344;2023-08-12T09:14:05;9.07;;;2.10;;
64667;SDS011;51077;42.716;23.344;2023-08-12T09:16:31;3.83;;;1.70;;
64667;SDS011;51077;42.716;23.344;2023-08-12T09:18:57;4.80;;;1.50;;
64667;SDS011;51077;42.716;23.344;2023-08-12T09:21:23;2.97;;;1.50;;
64667;SDS011;51077;42.716;23.344;2023-08-12T09:23:51;4.10;;;1.70;;
64667;SDS011;51077;42.716;23.344;2023-08-12T09:26:18;3.90;;;1.70;;
64667;SDS011;51077;42.716;23.344;2023-08-12T09:28:48;4.50;;;1.60;;
64667;SDS011;51077;42.716;23.344;2023-08-12T09:31:23;2.83;;;1.50;;
64667;SDS011;51077;42.716;23.344;2023-08-12T09:33:51;3.03;;;1.60;;
64667;SDS011;51077;42.716;23.344;2023-08-12T09:36:18;2.80;;;1.60;;
64667;SDS011;51077;42.716;23.344;2023-08-12T09:38:47;3.20;;;1.50;;
64667;SDS011;51077;42.716;23.344;2023-08-12T09:41:12;2.90;;;1.70;;
64667;SDS011;51077;42.716;23.344;2023-08-12T09:43:44;2.97;;;1.50;;
64667;SDS011;51077;42.716;23.344;2023-08-12T09:46:13;2.50;;;1.60;;
64667;SDS011;51077;42.716;23.344;2023-08-12T09:48:39;2.87;;;1.70;;
64667;SDS011;51077;42.716;23.344;2023-08-12T09:51:04;3.43;;;1.40;;
64667;SDS011;51077;42.716;23.344;2023-08-12T09:53:31;3.30;;;1.63;;
64667;SDS011;51077;42.716;23.344;2023-08-12T09:55:57;2.90;;;2.00;;
64667;SDS011;51077;42.716;23.344;2023-08-12T09:58:26;2.90;;;1.70;;
64667;SDS011;51077;42.716;23.344;2023-08-12T10:00:55;2.83;;;1.80;;
64667;SDS011;51077;42.716;23.344;2023-08-12T10:03:22;2.90;;;1.70;;
64667;SDS011;51077;42.716;23.344;2023-08-12T10:05:49;3.13;;;1.47;;
64667;SDS011;51077;42.716;23.344;2023-08-12T10:08:16;3.73;;;1.67;;
64667;SDS011;51077;42.716;23.344;2023-08-12T10:10:43;2.83;;;1.40;;
64667;SDS011;51077;42.716;23.344;2023-08-12T10:13:09;3.70;;;1.57;;
64667;SDS011;51077;42.716;23.344;2023-08-12T10:15:36;2.47;;;1.40;;
64667;SDS011;51077;42.716;23.344;2023-08-12T10:18:02;2.70;;;1.53;;
64667;SDS011;51077;42.716;23.344;2023-08-12T10:20:29;3.50;;;1.90;;
64667;SDS011;51077;42.716;23.344;2023-08-12T10:22:56;3.03;;;1.40;;
64667;SDS011;51077;42.716;23.344;2023-08-12T10:25:22;3.23;;;1.40;;
64667;SDS011;51077;42.716;23.344;2023-08-12T10:27:50;3.13;;;1.60;;
64667;SDS011;51077;42.716;23.344;2023-08-12T10:30:15;4.93;;;1.77;;
64667;SDS011;51077;42.716;23.344;2023-08-12T10:32:41;3.50;;;1.40;;
64667;SDS011;51077;42.716;23.344;2023-08-12T10:35:07;2.87;;;1.40;;
64667;SDS011;51077;42.716;23.344;2023-08-12T10:37:37;3.67;;;1.53;;
64667;SDS011;51077;42.716;23.344;2023-08-12T10:40:03;2.40;;;1.60;;
64667;SDS011;51077;42.716;23.344;2023-08-12T10:42:45;3.43;;;1.67;;
64667;SDS011;51077;42.716;23.344;2023-08-12T10:45:13;3.17;;;1.50;;
64667;SDS011;51077;42.716;23.344;2023-08-12T10:47:40;3.03;;;1.37;;
64667;SDS011;51077;42.716;23.344;2023-08-12T10:50:19;2.30;;;1.20;;
64667;SDS011;51077;42.716;23.344;2023-08-12T10:52:47;2.70;;;1.40;;
64667;SDS011;51077;42.716;23.344;2023-08-12T10:57:46;2.30;;;1.20;;
64667;SDS011;51077;42.716;23.344;2023-08-12T11:00:15;3.50;;;1.20;;
64667;SDS011;51077;42.716;23.344;2023-08-12T11:02:46;2.20;;;1.20;;
64667;SDS011;51077;42.716;23.344;2023-08-12T11:05:14;1.63;;;1.07;;
64667;SDS011;51077;42.716;23.344;2023-08-12T11:10:10;4.17;;;1.53;;
64667;SDS011;51077;42.716;23.344;2023-08-12T11:12:38;2.30;;;1.13;;
64667;SDS011;51077;42.716;23.344;2023-08-12T11:15:04;3.13;;;1.30;;
64667;SDS011;51077;42.716;23.344;2023-08-12T11:17:34;3.50;;;1.20;;
64667;SDS011;51077;42.716;23.344;2023-08-12T11:20:02;1.70;;;0.90;;
64667;SDS011;51077;42.716;23.344;2023-08-12T11:22:30;2.20;;;1.20;;
64667;SDS011;51077;42.716;23.344;2023-08-12T11:24:57;2.20;;;0.93;;
64667;SDS011;51077;42.716;23.344;2023-08-12T11:27:23;2.87;;;1.30;;
64667;SDS011;51077;42.716;23.344;2023-08-12T11:29:51;2.33;;;1.10;;
64667;SDS011;51077;42.716;23.344;2023-08-12T11:32:18;2.30;;;1.17;;
64667;SDS011;51077;42.716;23.344;2023-08-12T11:34:44;1.97;;;1.10;;
64667;SDS011;51077;42.716;23.344;2023-08-12T11:37:09;2.47;;;1.03;;
64667;SDS011;51077;42.716;23.344;2023-08-12T11:39:35;1.57;;;0.97;;
64667;SDS011;51077;42.716;23.344;2023-08-12T11:42:00;2.13;;;1.00;;
64667;SDS011;51077;42.716;23.344;2023-08-12T11:44:26;1.80;;;0.80;;
64667;SDS011;51077;42.716;23.344;2023-08-12T11:46:51;2.63;;;1.20;;
64667;SDS011;51077;42.716;23.344;2023-08-12T11:49:17;2.37;;;1.10;;
64667;SDS011;51077;42.716;23.344;2023-08-12T11:51:43;2.23;;;1.13;;
64667;SDS011;51077;42.716;23.344;2023-08-12T11:54:14;3.10;;;0.90;;
64667;SDS011;51077;42.716;23.344;2023-08-12T11:56:40;1.73;;;0.93;;
64667;SDS011;51077;42.716;23.344;2023-08-12T11:59:06;2.27;;;1.17;;
64667;SDS011;51077;42.716;23.344;2023-08-12T12:01:32;2.30;;;1.20;;
64667;SDS011;51077;42.716;23.344;2023-08-12T12:03:59;1.93;;;1.13;;
64667;SDS011;51077;42.716;23.344;2023-08-12T12:06:32;1.90;;;1.00;;
64667;SDS011;51077;42.716;23.344;2023-08-12T12:09:04;1.63;;;1.00;;
64667;SDS011;51077;42.716;23.344;2023-08-12T12:11:34;1.80;;;1.10;;
64667;SDS011;51077;42.716;23.344;2023-08-12T12:14:02;3.07;;;1.10;;
64667;SDS011;51077;42.716;23.344;2023-08-12T12:16:38;2.00;;;1.20;;
64667;SDS011;51077;42.716;23.344;2023-08-12T12:19:07;2.30;;;1.07;;
64667;SDS011;51077;42.716;23.344;2023-08-12T12:21:40;3.13;;;1.03;;
64667;SDS011;51077;42.716;23.344;2023-08-12T12:24:07;2.00;;;1.00;;
64667;SDS011;51077;42.716;23.344;2023-08-12T12:26:36;3.20;;;1.20;;
64667;SDS011;51077;42.716;23.344;2023-08-12T12:29:05;2.30;;;1.20;;
64667;SDS011;51077;42.716;23.344;2023-08-12T12:31:31;1.70;;;1.00;;
64667;SDS011;51077;42.716;23.344;2023-08-12T12:34:01;5.43;;;1.27;;
64667;SDS011;51077;42.716;23.344;2023-08-12T12:36:28;2.70;;;1.30;;
64667;SDS011;51077;42.716;23.344;2023-08-12T12:38:54;4.43;;;1.47;;
64667;SDS011;51077;42.716;23.344;2023-08-12T12:41:19;2.97;;;1.23;;
64667;SDS011;51077;42.716;23.344;2023-08-12T12:43:45;2.20;;;1.00;;
64667;SDS011;51077;42.716;23.344;2023-08-12T12:46:10;2.97;;;1.70;;
64667;SDS011;51077;42.716;23.344;2023-08-12T12:48:36;2.87;;;1.43;;
64667;SDS011;51077;42.716;23.344;2023-08-12T12:51:02;2.67;;;1.50;;
64667;SDS011;51077;42.716;23.344;2023-08-12T12:53:27;2.57;;;1.43;;
64667;SDS011;51077;42.716;23.344;2023-08-12T12:55:52;2.83;;;1.37;;
64667;SDS011;51077;42.716;23.344;2023-08-12T12:58:18;3.70;;;1.10;;
64667;SDS011;51077;42.716;23.344;2023-08-12T13:00:43;2.73;;;1.20;;
64667;SDS011;51077;42.716;23.344;2023-08-12T13:03:09;2.17;;;1.50;;
64667;SDS011;51077;42.716;23.344;2023-08-12T13:05:34;2.20;;;1.30;;
64667;SDS011;51077;42.716;23.344;2023-08-12T13:08:00;2.97;;;1.40;;
64667;SDS011;51077;42.716;23.344;2023-08-12T13:10:25;3.07;;;1.20;;
64667;SDS011;51077;42.716;23.344;2023-08-12T13:12:50;2.70;;;1.30;;
64667;SDS011;51077;42.716;23.344;2023-08-12T13:15:16;2.20;;;1.13;;
64667;SDS011;51077;42.716;23.344;2023-08-12T13:17:41;3.03;;;1.60;;
64667;SDS011;51077;42.716;23.344;2023-08-12T13:20:07;3.00;;;1.37;;
64667;SDS011;51077;42.716;23.344;2023-08-12T13:22:34;2.23;;;1.23;;
64667;SDS011;51077;42.716;23.344;2023-08-12T13:25:00;2.30;;;1.43;;
64667;SDS011;51077;42.716;23.344;2023-08-12T13:27:26;2.03;;;1.20;;
64667;SDS011;51077;42.716;23.344;2023-08-12T13:29:51;2.30;;;1.17;;
64667;SDS011;51077;42.716;23.344;2023-08-12T13:32:16;3.70;;;1.30;;
64667;SDS011;51077;42.716;23.344;2023-08-12T13:34:42;2.00;;;1.20;;
64667;SDS011;51077;42.716;23.344;2023-08-12T13:37:11;3.20;;;1.10;;
64667;SDS011;51077;42.716;23.344;2023-08-12T13:39:36;2.17;;;1.17;;
64667;SDS011;51077;42.716;23.344;2023-08-12T13:42:02;1.93;;;1.10;;
64667;SDS011;51077;42.716;23.344;2023-08-12T13:44:27;1.90;;;1.00;;
64667;SDS011;51077;42.716;23.344;2023-08-12T13:46:52;2.10;;;1.07;;
64667;SDS011;51077;42.716;23.344;2023-08-12T13:49:18;1.77;;;1.10;;
64667;SDS011;51077;42.716;23.344;2023-08-12T13:51:43;2.00;;;1.10;;
64667;SDS011;51077;42.716;23.344;2023-08-12T13:54:09;6.70;;;1.40;;
64667;SDS011;51077;42.716;23.344;2023-08-12T13:56:34;3.07;;;1.50;;
64667;SDS011;51077;42.716;23.344;2023-08-12T13:59:00;2.37;;;1.20;;
64667;SDS011;51077;42.716;23.344;2023-08-12T14:01:25;2.67;;;1.20;;
64667;SDS011;51077;42.716;23.344;2023-08-12T14:03:51;3.40;;;1.60;;
64667;SDS011;51077;42.716;23.344;2023-08-12T14:06:16;2.73;;;1.40;;
64667;SDS011;51077;42.716;23.344;2023-08-12T14:08:41;2.90;;;1.40;;
64667;SDS011;51077;42.716;23.344;2023-08-12T14:11:07;4.47;;;1.20;;
64667;SDS011;51077;42.716;23.344;2023-08-12T14:13:32;3.07;;;1.20;;
64667;SDS011;51077;42.716;23.344;2023-08-12T14:15:58;1.70;;;1.00;;
64667;SDS011;51077;42.716;23.344;2023-08-12T14:18:25;4.43;;;1.10;;
64667;SDS011;51077;42.716;23.344;2023-08-12T14:20:50;2.83;;;1.07;;
64667;SDS011;51077;42.716;23.344;2023-08-12T14:23:16;2.67;;;1.30;;
64667;SDS011;51077;42.716;23.344;2023-08-12T14:25:41;5.90;;;1.50;;
64667;SDS011;51077;42.716;23.344;2023-08-12T14:28:06;3.87;;;1.30;;
64667;SDS011;51077;42.716;23.344;2023-08-12T14:30:32;3.70;;;1.13;;
64667;SDS011;51077;42.716;23.344;2023-08-12T14:32:57;4.83;;;1.30;;
64667;SDS011;51077;42.716;23.344;2023-08-12T14:35:24;3.22;;;1.20;;
64667;SDS011;51077;42.716;23.344;2023-08-12T14:37:50;4.35;;;1.45;;